sensor_id;sensor_type;location;lat;lon;timestamp;P1;durP1;ratioP1;P2;durP2;ratioP2
39434;SDS011;66825;51.880;-0.518;2023-05-21T00:00:45;1.08;;;0.80;;
39434;SDS011;66825;51.880;-0.518;2023-05-21T00:03:10;2.03;;;1.05;;
39434;SDS011;66825;51.880;-0.518;2023-05-21T00:05:40;1.30;;;1.10;;
39434;SDS011;66825;51.880;-0.518;2023-05-21T00:08:06;1.42;;;1.00;;
39434;SDS011;66825;51.880;-0.518;2023-05-21T00:10:32;1.10;;;0.90;;
39434;SDS011;66825;51.880;-0.518;2023-05-21T00:12:57;0.98;;;0.88;;
39434;SDS011;66825;51.880;-0.518;2023-05-21T00:15:23;1.20;;;0.82;;
39434;SDS011;66825;51.880;-0.518;2023-05-21T00:17:48;1.40;;;1.00;;
39434;SDS011;66825;51.880;-0.518;2023-05-21T00:20:13;1.20;;;1.00;;
39434;SDS011;66825;51.880;-0.518;2023-05-21T00:22:40;1.05;;;0.85;;
39434;SDS011;66825;51.880;-0.518;2023-05-21T00:25:09;1.60;;;1.10;;
39434;SDS011;66825;51.880;-0.518;2023-05-21T00:27:35;1.30;;;1.00;;
39434;SDS011;66825;51.880;-0.518;2023-05-21T00:30:01;1.40;;;1.10;;
39434;SDS011;66825;51.880;-0.518;2023-05-21T00:32:28;1.30;;;0.98;;
39434;SDS011;66825;51.880;-0.518;2023-05-21T00:34:53;1.30;;;1.00;;
39434;SDS011;66825;51.880;-0.518;2023-05-21T00:37:19;1.10;;;1.00;;
39434;SDS011;66825;51.880;-0.518;2023-05-21T00:39:44;1.40;;;0.95;;
39434;SDS011;66825;51.880;-0.518;2023-05-21T00:42:10;1.70;;;1.10;;
39434;SDS011;66825;51.880;-0.518;2023-05-21T00:44:37;1.90;;;1.10;;
39434;SDS011;66825;51.880;-0.518;2023-05-21T00:47:03;2.00;;;0.93;;
39434;SDS011;66825;51.880;-0.518;2023-05-21T00:49:30;2.53;;;1.00;;
39434;SDS011;66825;51.880;-0.518;2023-05-21T00:51:56;1.73;;;1.00;;
39434;SDS011;66825;51.880;-0.518;2023-05-21T00:54:22;1.00;;;0.90;;
39434;SDS011;66825;51.880;-0.518;2023-05-21T00:56:48;1.65;;;1.08;;
39434;SDS011;66825;51.880;-0.518;2023-05-21T00:59:15;1.08;;;0.90;;
39434;SDS011;66825;51.880;-0.518;2023-05-21T01:01:42;1.40;;;1.10;;
39434;SDS011;66825;51.880;-0.518;2023-05-21T01:04:09;1.73;;;1.20;;
39434;SDS011;66825;51.880;-0.518;2023-05-21T01:06:35;1.55;;;1.05;;
39434;SDS011;66825;51.880;-0.518;2023-05-21T01:09:02;1.40;;;1.10;;
39434;SDS011;66825;51.880;-0.518;2023-05-21T01:11:35;1.13;;;0.98;;
39434;SDS011;66825;51.880;-0.518;2023-05-21T01:14:03;1.42;;;0.98;;
39434;SDS011;66825;51.880;-0.518;2023-05-21T01:16:32;1.10;;;1.00;;
39434;SDS011;66825;51.880;-0.518;2023-05-21T01:19:00;1.00;;;0.85;;
39434;SDS011;66825;51.880;-0.518;2023-05-21T01:21:27;2.30;;;1.17;;
39434;SDS011;66825;51.880;-0.518;2023-05-21T01:23:54;1.05;;;0.95;;
39434;SDS011;66825;51.880;-0.518;2023-05-21T01:26:20;1.50;;;1.10;;
39434;SDS011;66825;51.880;-0.518;2023-05-21T01:28:46;1.17;;;1.02;;
39434;SDS011;66825;51.880;-0.518;2023-05-21T01:31:21;1.10;;;0.82;;
39434;SDS011;66825;51.880;-0.518;2023-05-21T01:33:52;1.15;;;0.82;;
39434;SDS011;66825;51.880;-0.518;2023-05-21T01:36:20;1.05;;;0.95;;
39434;SDS011;66825;51.880;-0.518;2023-05-21T01:39:26;1.00;;;0.90;;
39434;SDS011;66825;51.880;-0.518;2023-05-21T01:41:47;1.60;;;0.90;;
39434;SDS011;66825;51.880;-0.518;2023-05-21T01:44:16;1.65;;;1.17;;
39434;SDS011;66825;51.880;-0.518;2023-05-21T01:46:43;1.23;;;0.90;;
39434;SDS011;66825;51.880;-0.518;2023-05-21T01:49:08;1.38;;;1.08;;
39434;SDS011;66825;51.880;-0.518;2023-05-21T01:51:35;1.10;;;0.75;;
39434;SDS011;66825;51.880;-0.518;2023-05-21T01:54:01;1.02;;;0.85;;
39434;SDS011;66825;51.880;-0.518;2023-05-21T01:56:26;1.08;;;0.90;;
39434;SDS011;66825;51.880;-0.518;2023-05-21T01:58:53;1.13;;;0.90;;
39434;SDS011;66825;51.880;-0.518;2023-05-21T02:01:21;1.50;;;0.95;;
39434;SDS011;66825;51.880;-0.518;2023-05-21T02:03:47;1.17;;;0.90;;
39434;SDS011;66825;51.880;-0.518;2023-05-21T02:06:12;1.70;;;1.10;;
39434;SDS011;66825;51.880;-0.518;2023-05-21T02:08:38;1.48;;;1.00;;
39434;SDS011;66825;51.880;-0.518;2023-05-21T02:11:03;1.50;;;1.00;;
39434;SDS011;66825;51.880;-0.518;2023-05-21T02:13:28;1.40;;;1.00;;
39434;SDS011;66825;51.880;-0.518;2023-05-21T02:15:54;1.52;;;1.10;;
39434;SDS011;66825;51.880;-0.518;2023-05-21T02:18:20;1.70;;;1.00;;
39434;SDS011;66825;51.880;-0.518;2023-05-21T02:20:45;1.60;;;0.90;;
39434;SDS011;66825;51.880;-0.518;2023-05-21T02:23:11;1.63;;;1.13;;
39434;SDS011;66825;51.880;-0.518;2023-05-21T02:25:36;1.35;;;1.02;;
39434;SDS011;66825;51.880;-0.518;2023-05-21T02:28:02;1.55;;;0.80;;
39434;SDS011;66825;51.880;-0.518;2023-05-21T02:30:28;1.52;;;1.05;;
39434;SDS011;66825;51.880;-0.518;2023-05-21T02:32:53;1.42;;;1.02;;
39434;SDS011;66825;51.880;-0.518;2023-05-21T02:35:19;1.05;;;0.80;;
39434;SDS011;66825;51.880;-0.518;2023-05-21T02:37:44;1.73;;;1.08;;
39434;SDS011;66825;51.880;-0.518;2023-05-21T02:40:10;1.08;;;0.90;;
39434;SDS011;66825;51.880;-0.518;2023-05-21T02:42:36;1.60;;;0.98;;
39434;SDS011;66825;51.880;-0.518;2023-05-21T02:45:05;1.20;;;0.90;;
39434;SDS011;66825;51.880;-0.518;2023-05-21T02:47:31;1.20;;;0.90;;
39434;SDS011;66825;51.880;-0.518;2023-05-21T02:49:58;1.27;;;0.90;;
39434;SDS011;66825;51.880;-0.518;2023-05-21T02:52:24;1.40;;;1.05;;
39434;SDS011;66825;51.880;-0.518;2023-05-21T02:54:50;1.80;;;1.00;;
39434;SDS011;66825;51.880;-0.518;2023-05-21T02:57:16;1.50;;;0.93;;
39434;SDS011;66825;51.880;-0.518;2023-05-21T02:59:42;1.40;;;0.90;;
39434;SDS011;66825;51.880;-0.518;2023-05-21T03:02:08;1.15;;;0.93;;
39434;SDS011;66825;51.880;-0.518;2023-05-21T03:04:34;1.70;;;1.00;;
39434;SDS011;66825;51.880;-0.518;2023-05-21T03:07:03;1.23;;;1.00;;
39434;SDS011;66825;51.880;-0.518;2023-05-21T03:09:29;1.42;;;1.00;;
39434;SDS011;66825;51.880;-0.518;2023-05-21T03:11:55;1.83;;;1.10;;
39434;SDS011;66825;51.880;-0.518;2023-05-21T03:14:20;1.52;;;1.00;;
39434;SDS011;66825;51.880;-0.518;2023-05-21T03:16:47;1.25;;;1.00;;
39434;SDS011;66825;51.880;-0.518;2023-05-21T03:19:13;1.00;;;0.90;;
39434;SDS011;66825;51.880;-0.518;2023-05-21T03:21:40;1.55;;;1.10;;
39434;SDS011;66825;51.880;-0.518;2023-05-21T03:24:07;1.70;;;1.00;;
39434;SDS011;66825;51.880;-0.518;2023-05-21T03:26:33;1.65;;;0.98;;
39434;SDS011;66825;51.880;-0.518;2023-05-21T03:28:59;1.60;;;1.00;;
39434;SDS011;66825;51.880;-0.518;2023-05-21T03:31:25;1.75;;;1.10;;
39434;SDS011;66825;51.880;-0.518;2023-05-21T03:33:51;1.27;;;1.00;;
39434;SDS011;66825;51.880;-0.518;2023-05-21T03:36:17;1.05;;;0.88;;
39434;SDS011;66825;51.880;-0.518;2023-05-21T03:38:43;1.63;;;1.00;;
39434;SDS011;66825;51.880;-0.518;2023-05-21T03:41:09;2.17;;;1.20;;
39434;SDS011;66825;51.880;-0.518;2023-05-21T03:43:34;1.13;;;1.00;;
39434;SDS011;66825;51.880;-0.518;2023-05-21T03:46:00;1.48;;;1.13;;
39434;SDS011;66825;51.880;-0.518;2023-05-21T03:48:25;1.20;;;1.00;;
39434;SDS011;66825;51.880;-0.518;2023-05-21T03:50:51;1.30;;;1.17;;
39434;SDS011;66825;51.880;-0.518;2023-05-21T03:53:16;1.40;;;0.98;;
39434;SDS011;66825;51.880;-0.518;2023-05-21T03:55:42;1.05;;;0.95;;
39434;SDS011;66825;51.880;-0.518;2023-05-21T03:58:07;1.13;;;0.93;;
39434;SDS011;66825;51.880;-0.518;2023-05-21T04:00:35;1.30;;;0.95;;
39434;SDS011;66825;51.880;-0.518;2023-05-21T04:03:02;1.10;;;1.00;;
39434;SDS011;66825;51.880;-0.518;2023-05-21T04:05:31;1.02;;;0.90;;
39434;SDS011;66825;51.880;-0.518;2023-05-21T04:07:57;1.27;;;0.93;;
39434;SDS011;66825;51.880;-0.518;2023-05-21T04:10:22;1.40;;;0.98;;
39434;SDS011;66825;51.880;-0.518;2023-05-21T04:12:48;2.17;;;0.85;;
39434;SDS011;66825;51.880;-0.518;2023-05-21T04:15:16;1.25;;;1.00;;
39434;SDS011;66825;51.880;-0.518;2023-05-21T04:17:45;1.45;;;0.93;;
39434;SDS011;66825;51.880;-0.518;2023-05-21T04:20:11;1.00;;;0.90;;
39434;SDS011;66825;51.880;-0.518;2023-05-21T04:22:38;1.67;;;0.98;;
39434;SDS011;66825;51.880;-0.518;2023-05-21T04:25:03;0.90;;;0.80;;
39434;SDS011;66825;51.880;-0.518;2023-05-21T04:27:29;1.23;;;0.80;;
39434;SDS011;66825;51.880;-0.518;2023-05-21T04:29:55;1.10;;;0.93;;
39434;SDS011;66825;51.880;-0.518;2023-05-21T04:32:22;0.90;;;0.80;;
39434;SDS011;66825;51.880;-0.518;2023-05-21T04:34:48;1.08;;;0.90;;
39434;SDS011;66825;51.880;-0.518;2023-05-21T04:37:14;1.20;;;1.00;;
39434;SDS011;66825;51.880;-0.518;2023-05-21T04:39:42;1.25;;;0.90;;
39434;SDS011;66825;51.880;-0.518;2023-05-21T04:42:08;1.50;;;1.10;;
39434;SDS011;66825;51.880;-0.518;2023-05-21T04:44:35;1.10;;;1.00;;
39434;SDS011;66825;51.880;-0.518;2023-05-21T04:47:02;1.35;;;1.00;;
39434;SDS011;66825;51.880;-0.518;2023-05-21T04:49:27;1.30;;;1.00;;
39434;SDS011;66825;51.880;-0.518;2023-05-21T04:51:54;1.33;;;0.95;;
39434;SDS011;66825;51.880;-0.518;2023-05-21T04:54:19;1.02;;;0.90;;
39434;SDS011;66825;51.880;-0.518;2023-05-21T04:56:44;1.60;;;0.90;;
39434;SDS011;66825;51.880;-0.518;2023-05-21T04:59:11;2.05;;;1.02;;
39434;SDS011;66825;51.880;-0.518;2023-05-21T05:01:37;1.48;;;1.10;;
39434;SDS011;66825;51.880;-0.518;2023-05-21T05:04:03;1.05;;;0.93;;
39434;SDS011;66825;51.880;-0.518;2023-05-21T05:06:29;1.00;;;0.80;;
39434;SDS011;66825;51.880;-0.518;2023-05-21T05:08:55;1.15;;;0.90;;
39434;SDS011;66825;51.880;-0.518;2023-05-21T05:11:21;2.13;;;1.00;;
39434;SDS011;66825;51.880;-0.518;2023-05-21T05:13:46;1.10;;;1.00;;
39434;SDS011;66825;51.880;-0.518;2023-05-21T05:16:12;1.30;;;0.90;;
39434;SDS011;66825;51.880;-0.518;2023-05-21T05:18:43;1.48;;;1.00;;
39434;SDS011;66825;51.880;-0.518;2023-05-21T05:21:08;1.00;;;0.90;;
39434;SDS011;66825;51.880;-0.518;2023-05-21T05:23:34;1.92;;;1.00;;
39434;SDS011;66825;51.880;-0.518;2023-05-21T05:25:59;2.13;;;1.00;;
39434;SDS011;66825;51.880;-0.518;2023-05-21T05:28:25;1.08;;;0.90;;
39434;SDS011;66825;51.880;-0.518;2023-05-21T05:30:50;1.05;;;0.88;;
39434;SDS011;66825;51.880;-0.518;2023-05-21T05:33:16;1.20;;;0.80;;
39434;SDS011;66825;51.880;-0.518;2023-05-21T05:35:41;1.38;;;1.10;;
39434;SDS011;66825;51.880;-0.518;2023-05-21T05:38:07;1.15;;;0.90;;
39434;SDS011;66825;51.880;-0.518;2023-05-21T05:40:33;0.90;;;0.80;;
39434;SDS011;66825;51.880;-0.518;2023-05-21T05:42:58;1.50;;;0.90;;
39434;SDS011;66825;51.880;-0.518;2023-05-21T05:45:24;1.08;;;0.80;;
39434;SDS011;66825;51.880;-0.518;2023-05-21T05:47:50;1.40;;;1.10;;
39434;SDS011;66825;51.880;-0.518;2023-05-21T05:50:16;1.52;;;0.95;;
39434;SDS011;66825;51.880;-0.518;2023-05-21T05:52:41;1.45;;;0.98;;
39434;SDS011;66825;51.880;-0.518;2023-05-21T05:55:07;1.50;;;0.90;;
39434;SDS011;66825;51.880;-0.518;2023-05-21T05:57:34;1.60;;;1.00;;
39434;SDS011;66825;51.880;-0.518;2023-05-21T06:00:00;1.17;;;1.05;;
39434;SDS011;66825;51.880;-0.518;2023-05-21T06:02:25;1.17;;;0.93;;
39434;SDS011;66825;51.880;-0.518;2023-05-21T06:04:50;1.33;;;0.88;;
39434;SDS011;66825;51.880;-0.518;2023-05-21T06:07:16;1.30;;;1.00;;
39434;SDS011;66825;51.880;-0.518;2023-05-21T06:09:41;1.23;;;0.90;;
39434;SDS011;66825;51.880;-0.518;2023-05-21T06:12:07;1.00;;;0.77;;
39434;SDS011;66825;51.880;-0.518;2023-05-21T06:14:32;1.13;;;0.82;;
39434;SDS011;66825;51.880;-0.518;2023-05-21T06:16:58;1.40;;;0.80;;
39434;SDS011;66825;51.880;-0.518;2023-05-21T06:19:23;1.52;;;0.90;;
39434;SDS011;66825;51.880;-0.518;2023-05-21T06:21:48;1.30;;;1.20;;
39434;SDS011;66825;51.880;-0.518;2023-05-21T06:24:14;1.02;;;0.88;;
39434;SDS011;66825;51.880;-0.518;2023-05-21T06:26:40;1.40;;;0.98;;
39434;SDS011;66825;51.880;-0.518;2023-05-21T06:29:06;1.10;;;0.80;;
39434;SDS011;66825;51.880;-0.518;2023-05-21T06:31:32;1.40;;;0.80;;
39434;SDS011;66825;51.880;-0.518;2023-05-21T06:33:58;1.30;;;1.00;;
39434;SDS011;66825;51.880;-0.518;2023-05-21T06:36:25;1.23;;;0.88;;
39434;SDS011;66825;51.880;-0.518;2023-05-21T06:38:54;1.38;;;0.98;;
39434;SDS011;66825;51.880;-0.518;2023-05-21T06:41:21;1.02;;;0.73;;
39434;SDS011;66825;51.880;-0.518;2023-05-21T06:43:46;0.98;;;0.85;;
39434;SDS011;66825;51.880;-0.518;2023-05-21T06:46:12;1.10;;;0.90;;
39434;SDS011;66825;51.880;-0.518;2023-05-21T06:48:37;1.10;;;0.80;;
39434;SDS011;66825;51.880;-0.518;2023-05-21T06:51:03;0.95;;;0.82;;
39434;SDS011;66825;51.880;-0.518;2023-05-21T06:53:28;1.05;;;0.75;;
39434;SDS011;66825;51.880;-0.518;2023-05-21T06:55:54;1.38;;;0.75;;
39434;SDS011;66825;51.880;-0.518;2023-05-21T06:58:19;1.58;;;0.80;;
39434;SDS011;66825;51.880;-0.518;2023-05-21T07:00:45;1.02;;;0.80;;
39434;SDS011;66825;51.880;-0.518;2023-05-21T07:03:12;1.13;;;0.82;;
39434;SDS011;66825;51.880;-0.518;2023-05-21T07:05:37;1.02;;;0.70;;
39434;SDS011;66825;51.880;-0.518;2023-05-21T07:08:03;1.23;;;0.90;;
39434;SDS011;66825;51.880;-0.518;2023-05-21T07:10:28;1.15;;;0.80;;
39434;SDS011;66825;51.880;-0.518;2023-05-21T07:12:53;1.23;;;0.90;;
39434;SDS011;66825;51.880;-0.518;2023-05-21T07:15:19;1.50;;;0.90;;
39434;SDS011;66825;51.880;-0.518;2023-05-21T07:17:44;1.10;;;0.80;;
39434;SDS011;66825;51.880;-0.518;2023-05-21T07:20:10;1.17;;;0.90;;
39434;SDS011;66825;51.880;-0.518;2023-05-21T07:22:37;0.98;;;0.77;;
39434;SDS011;66825;51.880;-0.518;2023-05-21T07:25:03;1.67;;;0.82;;
39434;SDS011;66825;51.880;-0.518;2023-05-21T07:27:29;1.10;;;0.80;;
39434;SDS011;66825;51.880;-0.518;2023-05-21T07:29:54;1.05;;;0.77;;
39434;SDS011;66825;51.880;-0.518;2023-05-21T07:32:20;1.00;;;0.85;;
39434;SDS011;66825;51.880;-0.518;2023-05-21T07:34:45;0.85;;;0.80;;
39434;SDS011;66825;51.880;-0.518;2023-05-21T07:37:11;1.45;;;0.82;;
39434;SDS011;66825;51.880;-0.518;2023-05-21T07:39:37;0.90;;;0.80;;
39434;SDS011;66825;51.880;-0.518;2023-05-21T07:42:03;1.02;;;0.60;;
39434;SDS011;66825;51.880;-0.518;2023-05-21T07:44:29;1.20;;;0.80;;
39434;SDS011;66825;51.880;-0.518;2023-05-21T07:46:56;1.33;;;0.80;;
39434;SDS011;66825;51.880;-0.518;2023-05-21T07:49:22;1.10;;;0.90;;
39434;SDS011;66825;51.880;-0.518;2023-05-21T07:51:47;0.90;;;0.70;;
39434;SDS011;66825;51.880;-0.518;2023-05-21T07:54:14;1.17;;;0.80;;
39434;SDS011;66825;51.880;-0.518;2023-05-21T07:56:39;1.17;;;0.90;;
39434;SDS011;66825;51.880;-0.518;2023-05-21T07:59:05;1.25;;;0.77;;
39434;SDS011;66825;51.880;-0.518;2023-05-21T08:01:30;1.20;;;0.80;;
39434;SDS011;66825;51.880;-0.518;2023-05-21T08:03:57;0.77;;;0.70;;
39434;SDS011;66825;51.880;-0.518;2023-05-21T08:06:24;1.48;;;0.85;;
39434;SDS011;66825;51.880;-0.518;2023-05-21T08:08:50;1.20;;;0.70;;
39434;SDS011;66825;51.880;-0.518;2023-05-21T08:11:18;1.00;;;0.90;;
39434;SDS011;66825;51.880;-0.518;2023-05-21T08:13:43;1.25;;;0.80;;
39434;SDS011;66825;51.880;-0.518;2023-05-21T08:16:09;1.17;;;0.80;;
39434;SDS011;66825;51.880;-0.518;2023-05-21T08:18:35;1.10;;;0.70;;
39434;SDS011;66825;51.880;-0.518;2023-05-21T08:21:00;1.23;;;0.90;;
39434;SDS011;66825;51.880;-0.518;2023-05-21T08:23:26;0.95;;;0.82;;
39434;SDS011;66825;51.880;-0.518;2023-05-21T08:25:51;0.80;;;0.73;;
39434;SDS011;66825;51.880;-0.518;2023-05-21T08:28:17;1.20;;;0.75;;
39434;SDS011;66825;51.880;-0.518;2023-05-21T08:30:43;1.10;;;0.80;;
39434;SDS011;66825;51.880;-0.518;2023-05-21T08:33:08;0.90;;;0.70;;
39434;SDS011;66825;51.880;-0.518;2023-05-21T08:35:34;1.08;;;0.75;;
39434;SDS011;66825;51.880;-0.518;2023-05-21T08:37:59;1.77;;;0.70;;
39434;SDS011;66825;51.880;-0.518;2023-05-21T08:40:25;0.93;;;0.70;;
39434;SDS011;66825;51.880;-0.518;2023-05-21T08:42:50;1.02;;;0.75;;
39434;SDS011;66825;51.880;-0.518;2023-05-21T08:45:19;1.00;;;0.70;;
39434;SDS011;66825;51.880;-0.518;2023-05-21T08:47:45;0.98;;;0.70;;
39434;SDS011;66825;51.880;-0.518;2023-05-21T08:50:12;1.23;;;0.73;;
39434;SDS011;66825;51.880;-0.518;2023-05-21T08:52:40;1.10;;;0.90;;
39434;SDS011;66825;51.880;-0.518;2023-05-21T08:55:06;2.05;;;0.90;;
39434;SDS011;66825;51.880;-0.518;2023-05-21T08:57:33;1.00;;;0.80;;
39434;SDS011;66825;51.880;-0.518;2023-05-21T08:59:59;1.38;;;0.80;;
39434;SDS011;66825;51.880;-0.518;2023-05-21T09:02:26;1.05;;;0.80;;
39434;SDS011;66825;51.880;-0.518;2023-05-21T09:04:54;2.55;;;0.95;;
39434;SDS011;66825;51.880;-0.518;2023-05-21T09:07:21;0.75;;;0.70;;
39434;SDS011;66825;51.880;-0.518;2023-05-21T09:09:55;1.42;;;0.90;;
39434;SDS011;66825;51.880;-0.518;2023-05-21T09:12:23;1.63;;;1.05;;
39434;SDS011;66825;51.880;-0.518;2023-05-21T09:14:50;1.73;;;0.90;;
39434;SDS011;66825;51.880;-0.518;2023-05-21T09:17:16;0.95;;;0.68;;
39434;SDS011;66825;51.880;-0.518;2023-05-21T09:22:32;1.17;;;0.90;;
39434;SDS011;66825;51.880;-0.518;2023-05-21T09:24:57;1.55;;;0.88;;
39434;SDS011;66825;51.880;-0.518;2023-05-21T09:27:23;1.25;;;0.85;;
39434;SDS011;66825;51.880;-0.518;2023-05-21T09:29:48;1.40;;;1.00;;
39434;SDS011;66825;51.880;-0.518;2023-05-21T09:32:14;1.30;;;0.80;;
39434;SDS011;66825;51.880;-0.518;2023-05-21T09:34:41;0.90;;;0.70;;
39434;SDS011;66825;51.880;-0.518;2023-05-21T09:37:07;1.83;;;0.90;;
39434;SDS011;66825;51.880;-0.518;2023-05-21T09:39:33;1.10;;;0.82;;
39434;SDS011;66825;51.880;-0.518;2023-05-21T09:41:59;1.50;;;0.80;;
39434;SDS011;66825;51.880;-0.518;2023-05-21T09:44:26;1.77;;;1.00;;
39434;SDS011;66825;51.880;-0.518;2023-05-21T09:46:55;1.27;;;0.95;;
39434;SDS011;66825;51.880;-0.518;2023-05-21T09:49:23;1.10;;;0.82;;
39434;SDS011;66825;51.880;-0.518;2023-05-21T09:51:56;1.42;;;0.80;;
39434;SDS011;66825;51.880;-0.518;2023-05-21T09:54:23;1.15;;;0.88;;
39434;SDS011;66825;51.880;-0.518;2023-05-21T09:56:52;1.17;;;0.80;;
39434;SDS011;66825;51.880;-0.518;2023-05-21T09:59:17;2.22;;;0.70;;
39434;SDS011;66825;51.880;-0.518;2023-05-21T10:01:44;1.52;;;0.90;;
39434;SDS011;66825;51.880;-0.518;2023-05-21T10:04:10;0.90;;;0.70;;
39434;SDS011;66825;51.880;-0.518;2023-05-21T10:06:36;0.98;;;0.77;;
39434;SDS011;66825;51.880;-0.518;2023-05-21T10:09:08;1.35;;;0.80;;
39434;SDS011;66825;51.880;-0.518;2023-05-21T10:11:35;0.90;;;0.80;;
39434;SDS011;66825;51.880;-0.518;2023-05-21T10:14:13;1.80;;;0.80;;
39434;SDS011;66825;51.880;-0.518;2023-05-21T10:16:41;0.93;;;0.73;;
39434;SDS011;66825;51.880;-0.518;2023-05-21T10:19:06;1.08;;;0.70;;
39434;SDS011;66825;51.880;-0.518;2023-05-21T10:21:35;1.13;;;0.90;;
39434;SDS011;66825;51.880;-0.518;2023-05-21T10:24:01;1.45;;;0.82;;
39434;SDS011;66825;51.880;-0.518;2023-05-21T10:26:28;1.05;;;0.70;;
39434;SDS011;66825;51.880;-0.518;2023-05-21T10:28:55;1.25;;;0.80;;
39434;SDS011;66825;51.880;-0.518;2023-05-21T10:31:21;1.17;;;0.80;;
39434;SDS011;66825;51.880;-0.518;2023-05-21T10:33:47;0.77;;;0.70;;
39434;SDS011;66825;51.880;-0.518;2023-05-21T10:36:14;1.00;;;0.80;;
39434;SDS011;66825;51.880;-0.518;2023-05-21T10:38:42;1.10;;;0.70;;
39434;SDS011;66825;51.880;-0.518;2023-05-21T10:41:08;0.90;;;0.70;;
39434;SDS011;66825;51.880;-0.518;2023-05-21T10:46:48;0.80;;;0.73;;
39434;SDS011;66825;51.880;-0.518;2023-05-21T10:54:50;1.10;;;0.82;;
39434;SDS011;66825;51.880;-0.518;2023-05-21T11:00:06;1.08;;;0.90;;
39434;SDS011;66825;51.880;-0.518;2023-05-21T11:02:33;0.60;;;0.55;;
39434;SDS011;66825;51.880;-0.518;2023-05-21T11:04:59;1.10;;;0.70;;
39434;SDS011;66825;51.880;-0.518;2023-05-21T11:10:29;0.80;;;0.70;;
39434;SDS011;66825;51.880;-0.518;2023-05-21T11:13:05;0.77;;;0.70;;
39434;SDS011;66825;51.880;-0.518;2023-05-21T11:26:23;0.90;;;0.70;;
39434;SDS011;66825;51.880;-0.518;2023-05-21T11:29:07;0.65;;;0.60;;
39434;SDS011;66825;51.880;-0.518;2023-05-21T11:31:34;0.55;;;0.52;;
39434;SDS011;66825;51.880;-0.518;2023-05-21T11:34:12;0.65;;;0.60;;
39434;SDS011;66825;51.880;-0.518;2023-05-21T11:36:43;0.90;;;0.75;;
39434;SDS011;66825;51.880;-0.518;2023-05-21T11:39:10;0.88;;;0.70;;
39434;SDS011;66825;51.880;-0.518;2023-05-21T11:44:40;0.98;;;0.88;;
39434;SDS011;66825;51.880;-0.518;2023-05-21T11:47:10;0.70;;;0.65;;
39434;SDS011;66825;51.880;-0.518;2023-05-21T11:49:37;0.95;;;0.60;;
39434;SDS011;66825;51.880;-0.518;2023-05-21T11:52:04;0.80;;;0.60;;
39434;SDS011;66825;51.880;-0.518;2023-05-21T11:54:31;1.10;;;0.65;;
39434;SDS011;66825;51.880;-0.518;2023-05-21T11:57:02;0.93;;;0.70;;
39434;SDS011;66825;51.880;-0.518;2023-05-21T11:59:33;0.88;;;0.55;;
39434;SDS011;66825;51.880;-0.518;2023-05-21T12:02:00;1.10;;;0.70;;
39434;SDS011;66825;51.880;-0.518;2023-05-21T12:04:29;1.02;;;0.70;;
39434;SDS011;66825;51.880;-0.518;2023-05-21T12:07:07;1.02;;;0.82;;
39434;SDS011;66825;51.880;-0.518;2023-05-21T12:12:09;0.70;;;0.60;;
39434;SDS011;66825;51.880;-0.518;2023-05-21T12:14:38;0.93;;;0.80;;
39434;SDS011;66825;51.880;-0.518;2023-05-21T12:17:04;0.85;;;0.60;;
39434;SDS011;66825;51.880;-0.518;2023-05-21T12:19:34;0.98;;;0.63;;
39434;SDS011;66825;51.880;-0.518;2023-05-21T12:22:04;1.50;;;0.90;;
39434;SDS011;66825;51.880;-0.518;2023-05-21T12:24:31;0.77;;;0.70;;
39434;SDS011;66825;51.880;-0.518;2023-05-21T12:26:58;0.90;;;0.60;;
39434;SDS011;66825;51.880;-0.518;2023-05-21T12:29:31;1.00;;;0.75;;
39434;SDS011;66825;51.880;-0.518;2023-05-21T12:31:58;0.77;;;0.70;;
39434;SDS011;66825;51.880;-0.518;2023-05-21T12:34:37;0.70;;;0.60;;
39434;SDS011;66825;51.880;-0.518;2023-05-21T12:37:07;0.93;;;0.60;;
39434;SDS011;66825;51.880;-0.518;2023-05-21T12:39:36;1.17;;;0.70;;
39434;SDS011;66825;51.880;-0.518;2023-05-21T12:42:12;0.80;;;0.60;;
39434;SDS011;66825;51.880;-0.518;2023-05-21T12:44:47;0.80;;;0.70;;
39434;SDS011;66825;51.880;-0.518;2023-05-21T12:47:13;0.70;;;0.70;;
39434;SDS011;66825;51.880;-0.518;2023-05-21T12:49:39;0.85;;;0.70;;
39434;SDS011;66825;51.880;-0.518;2023-05-21T12:52:16;1.10;;;0.77;;
39434;SDS011;66825;51.880;-0.518;2023-05-21T12:54:51;2.15;;;0.70;;
39434;SDS011;66825;51.880;-0.518;2023-05-21T12:57:18;0.68;;;0.60;;
39434;SDS011;66825;51.880;-0.518;2023-05-21T13:02:25;0.70;;;0.70;;
39434;SDS011;66825;51.880;-0.518;2023-05-21T13:07:21;0.65;;;0.60;;
39434;SDS011;66825;51.880;-0.518;2023-05-21T13:09:47;0.70;;;0.70;;
39434;SDS011;66825;51.880;-0.518;2023-05-21T13:12:14;0.90;;;0.80;;
39434;SDS011;66825;51.880;-0.518;2023-05-21T13:14:39;1.00;;;0.65;;
39434;SDS011;66825;51.880;-0.518;2023-05-21T13:17:05;0.88;;;0.70;;
39434;SDS011;66825;51.880;-0.518;2023-05-21T13:19:30;0.75;;;0.65;;
39434;SDS011;66825;51.880;-0.518;2023-05-21T13:21:56;1.60;;;0.52;;
39434;SDS011;66825;51.880;-0.518;2023-05-21T13:24:21;0.50;;;0.50;;
39434;SDS011;66825;51.880;-0.518;2023-05-21T13:26:47;1.40;;;0.77;;
39434;SDS011;66825;51.880;-0.518;2023-05-21T13:29:12;1.02;;;0.68;;
39434;SDS011;66825;51.880;-0.518;2023-05-21T13:31:42;0.90;;;0.80;;
39434;SDS011;66825;51.880;-0.518;2023-05-21T13:34:09;1.00;;;0.70;;
39434;SDS011;66825;51.880;-0.518;2023-05-21T13:36:35;0.77;;;0.70;;
39434;SDS011;66825;51.880;-0.518;2023-05-21T13:39:01;1.00;;;0.73;;
39434;SDS011;66825;51.880;-0.518;2023-05-21T13:41:26;2.17;;;0.77;;
39434;SDS011;66825;51.880;-0.518;2023-05-21T13:43:52;0.57;;;0.57;;
39434;SDS011;66825;51.880;-0.518;2023-05-21T13:46:17;0.93;;;0.60;;
39434;SDS011;66825;51.880;-0.518;2023-05-21T13:48:43;0.70;;;0.60;;
39434;SDS011;66825;51.880;-0.518;2023-05-21T13:51:08;1.10;;;0.68;;
39434;SDS011;66825;51.880;-0.518;2023-05-21T13:53:34;0.80;;;0.73;;
39434;SDS011;66825;51.880;-0.518;2023-05-21T13:55:59;1.25;;;0.70;;
39434;SDS011;66825;51.880;-0.518;2023-05-21T13:58:24;0.80;;;0.60;;
39434;SDS011;66825;51.880;-0.518;2023-05-21T14:00:52;1.20;;;0.90;;
39434;SDS011;66825;51.880;-0.518;2023-05-21T14:03:18;0.70;;;0.60;;
39434;SDS011;66825;51.880;-0.518;2023-05-21T14:05:44;1.02;;;0.80;;
39434;SDS011;66825;51.880;-0.518;2023-05-21T14:08:09;0.80;;;0.70;;
39434;SDS011;66825;51.880;-0.518;2023-05-21T14:10:35;0.70;;;0.60;;
39434;SDS011;66825;51.880;-0.518;2023-05-21T14:13:01;1.05;;;0.85;;
39434;SDS011;66825;51.880;-0.518;2023-05-21T14:15:26;0.60;;;0.52;;
39434;SDS011;66825;51.880;-0.518;2023-05-21T14:17:52;1.30;;;0.80;;
39434;SDS011;66825;51.880;-0.518;2023-05-21T14:20:17;1.05;;;0.70;;
39434;SDS011;66825;51.880;-0.518;2023-05-21T14:22:43;0.90;;;0.63;;
39434;SDS011;66825;51.880;-0.518;2023-05-21T14:25:08;1.13;;;0.70;;
39434;SDS011;66825;51.880;-0.518;2023-05-21T14:27:34;1.25;;;0.70;;
39434;SDS011;66825;51.880;-0.518;2023-05-21T14:30:02;0.88;;;0.70;;
39434;SDS011;66825;51.880;-0.518;2023-05-21T14:32:28;1.27;;;0.80;;
39434;SDS011;66825;51.880;-0.518;2023-05-21T14:34:53;0.70;;;0.70;;
39434;SDS011;66825;51.880;-0.518;2023-05-21T14:37:19;0.80;;;0.52;;
39434;SDS011;66825;51.880;-0.518;2023-05-21T14:39:44;1.00;;;0.70;;
39434;SDS011;66825;51.880;-0.518;2023-05-21T14:42:10;0.90;;;0.80;;
39434;SDS011;66825;51.880;-0.518;2023-05-21T14:44:35;1.00;;;0.60;;
39434;SDS011;66825;51.880;-0.518;2023-05-21T14:47:01;1.23;;;0.80;;
39434;SDS011;66825;51.880;-0.518;2023-05-21T14:49:26;1.35;;;0.70;;
39434;SDS011;66825;51.880;-0.518;2023-05-21T14:51:51;1.02;;;0.80;;
39434;SDS011;66825;51.880;-0.518;2023-05-21T14:54:17;1.02;;;0.80;;
39434;SDS011;66825;51.880;-0.518;2023-05-21T14:56:42;0.95;;;0.80;;
39434;SDS011;66825;51.880;-0.518;2023-05-21T14:59:08;1.10;;;0.63;;
39434;SDS011;66825;51.880;-0.518;2023-05-21T15:01:36;0.90;;;0.77;;
39434;SDS011;66825;51.880;-0.518;2023-05-21T15:04:02;1.08;;;0.80;;
39434;SDS011;66825;51.880;-0.518;2023-05-21T15:06:28;0.80;;;0.70;;
39434;SDS011;66825;51.880;-0.518;2023-05-21T15:08:53;0.90;;;0.75;;